Terminal Aerodrome Forecast
Issued by NWS Wilmington, OH

Current Version | Previous Version | Text Only | Print | Product List | Glossary Off
Versions: 1 2 3 4 5 6 7 8 9 10 11 12 13 14 15 16 17

000
FTUS41 KILN 231121
TAFCMH
TAF
KCMH 231121Z 2312/2412 VRB03KT P6SM OVC250
     FM231800 10006KT P6SM BKN250
     FM240300 13004KT P6SM BKN050=

USA.gov is the U.S. government's official web portal to all federal, state and local government web resources and services.